sensor_id;sensor_type;location;lat;lon;timestamp;P1;durP1;ratioP1;P2;durP2;ratioP2
74677;SDS011;63207;56.328;43.994;2022-11-15T00:01:53;0.90;;;0.68;;
74677;SDS011;63207;56.328;43.994;2022-11-15T00:04:38;0.70;;;0.57;;
74677;SDS011;63207;56.328;43.994;2022-11-15T00:07:22;1.02;;;0.60;;
74677;SDS011;63207;56.328;43.994;2022-11-15T00:10:06;0.80;;;0.60;;
74677;SDS011;63207;56.328;43.994;2022-11-15T00:12:51;0.73;;;0.52;;
74677;SDS011;63207;56.328;43.994;2022-11-15T00:15:39;0.80;;;0.60;;
74677;SDS011;63207;56.328;43.994;2022-11-15T00:18:24;0.50;;;0.50;;
74677;SDS011;63207;56.328;43.994;2022-11-15T00:21:10;0.65;;;0.60;;
74677;SDS011;63207;56.328;43.994;2022-11-15T00:23:55;0.70;;;0.70;;
74677;SDS011;63207;56.328;43.994;2022-11-15T00:26:40;0.60;;;0.57;;
74677;SDS011;63207;56.328;43.994;2022-11-15T00:29:24;0.75;;;0.70;;
74677;SDS011;63207;56.328;43.994;2022-11-15T00:32:09;0.60;;;0.60;;
74677;SDS011;63207;56.328;43.994;2022-11-15T00:34:54;0.55;;;0.50;;
74677;SDS011;63207;56.328;43.994;2022-11-15T00:37:38;0.77;;;0.60;;
74677;SDS011;63207;56.328;43.994;2022-11-15T00:40:23;0.70;;;0.70;;
74677;SDS011;63207;56.328;43.994;2022-11-15T00:43:07;1.35;;;0.60;;
74677;SDS011;63207;56.328;43.994;2022-11-15T00:45:51;0.88;;;0.70;;
74677;SDS011;63207;56.328;43.994;2022-11-15T00:48:36;0.50;;;0.50;;
74677;SDS011;63207;56.328;43.994;2022-11-15T00:51:21;0.88;;;0.70;;
74677;SDS011;63207;56.328;43.994;2022-11-15T00:54:05;0.70;;;0.60;;
74677;SDS011;63207;56.328;43.994;2022-11-15T00:56:49;1.05;;;0.60;;
74677;SDS011;63207;56.328;43.994;2022-11-15T00:59:33;0.70;;;0.57;;
74677;SDS011;63207;56.328;43.994;2022-11-15T01:02:18;0.75;;;0.60;;
74677;SDS011;63207;56.328;43.994;2022-11-15T01:05:02;0.50;;;0.50;;
74677;SDS011;63207;56.328;43.994;2022-11-15T01:07:47;0.70;;;0.60;;
74677;SDS011;63207;56.328;43.994;2022-11-15T01:10:36;0.63;;;0.60;;
74677;SDS011;63207;56.328;43.994;2022-11-15T01:13:20;0.50;;;0.50;;
74677;SDS011;63207;56.328;43.994;2022-11-15T01:16:09;1.05;;;0.70;;
74677;SDS011;63207;56.328;43.994;2022-11-15T01:18:59;0.60;;;0.60;;
74677;SDS011;63207;56.328;43.994;2022-11-15T01:24:27;0.75;;;0.60;;
74677;SDS011;63207;56.328;43.994;2022-11-15T01:27:12;0.50;;;0.50;;
74677;SDS011;63207;56.328;43.994;2022-11-15T01:29:56;0.63;;;0.50;;
74677;SDS011;63207;56.328;43.994;2022-11-15T01:32:40;0.73;;;0.60;;
74677;SDS011;63207;56.328;43.994;2022-11-15T01:35:24;0.60;;;0.50;;
74677;SDS011;63207;56.328;43.994;2022-11-15T01:38:08;0.82;;;0.60;;
74677;SDS011;63207;56.328;43.994;2022-11-15T01:40:53;0.82;;;0.52;;
74677;SDS011;63207;56.328;43.994;2022-11-15T01:43:39;0.57;;;0.57;;
74677;SDS011;63207;56.328;43.994;2022-11-15T01:46:25;0.60;;;0.60;;
74677;SDS011;63207;56.328;43.994;2022-11-15T01:49:15;0.80;;;0.60;;
74677;SDS011;63207;56.328;43.994;2022-11-15T01:52:03;0.80;;;0.60;;
74677;SDS011;63207;56.328;43.994;2022-11-15T01:55:14;0.80;;;0.60;;
74677;SDS011;63207;56.328;43.994;2022-11-15T01:58:00;0.98;;;0.50;;
74677;SDS011;63207;56.328;43.994;2022-11-15T02:00:48;1.00;;;0.60;;
74677;SDS011;63207;56.328;43.994;2022-11-15T02:03:39;0.60;;;0.60;;
74677;SDS011;63207;56.328;43.994;2022-11-15T02:06:28;0.88;;;0.50;;
74677;SDS011;63207;56.328;43.994;2022-11-15T02:09:12;0.57;;;0.50;;
74677;SDS011;63207;56.328;43.994;2022-11-15T02:11:57;0.80;;;0.60;;
74677;SDS011;63207;56.328;43.994;2022-11-15T02:14:44;0.60;;;0.60;;
74677;SDS011;63207;56.328;43.994;2022-11-15T02:20:46;0.57;;;0.57;;
74677;SDS011;63207;56.328;43.994;2022-11-15T02:24:04;0.60;;;0.60;;
74677;SDS011;63207;56.328;43.994;2022-11-15T02:33:38;0.50;;;0.50;;
74677;SDS011;63207;56.328;43.994;2022-11-15T02:42:32;0.63;;;0.52;;
74677;SDS011;63207;56.328;43.994;2022-11-15T02:45:40;0.50;;;0.50;;
74677;SDS011;63207;56.328;43.994;2022-11-15T02:48:30;0.60;;;0.60;;
74677;SDS011;63207;56.328;43.994;2022-11-15T02:51:16;0.80;;;0.60;;
74677;SDS011;63207;56.328;43.994;2022-11-15T02:54:01;0.60;;;0.60;;
74677;SDS011;63207;56.328;43.994;2022-11-15T02:56:45;0.60;;;0.60;;
74677;SDS011;63207;56.328;43.994;2022-11-15T03:06:01;0.60;;;0.60;;
74677;SDS011;63207;56.328;43.994;2022-11-15T03:12:04;0.52;;;0.50;;
74677;SDS011;63207;56.328;43.994;2022-11-15T03:14:56;0.50;;;0.50;;
74677;SDS011;63207;56.328;43.994;2022-11-15T03:17:48;0.50;;;0.50;;
74677;SDS011;63207;56.328;43.994;2022-11-15T03:20:39;0.50;;;0.50;;
74677;SDS011;63207;56.328;43.994;2022-11-15T03:23:24;0.68;;;0.50;;
74677;SDS011;63207;56.328;43.994;2022-11-15T03:26:11;0.50;;;0.50;;
74677;SDS011;63207;56.328;43.994;2022-11-15T03:29:03;0.73;;;0.70;;
74677;SDS011;63207;56.328;43.994;2022-11-15T03:31:55;0.60;;;0.60;;
74677;SDS011;63207;56.328;43.994;2022-11-15T03:34:44;0.50;;;0.50;;
74677;SDS011;63207;56.328;43.994;2022-11-15T03:37:35;0.60;;;0.60;;
74677;SDS011;63207;56.328;43.994;2022-11-15T03:40:35;0.50;;;0.50;;
74677;SDS011;63207;56.328;43.994;2022-11-15T03:46:36;0.95;;;0.60;;
74677;SDS011;63207;56.328;43.994;2022-11-15T03:49:31;0.57;;;0.57;;
74677;SDS011;63207;56.328;43.994;2022-11-15T03:52:18;1.15;;;0.65;;
74677;SDS011;63207;56.328;43.994;2022-11-15T03:55:04;0.52;;;0.50;;
74677;SDS011;63207;56.328;43.994;2022-11-15T03:57:51;0.47;;;0.47;;
74677;SDS011;63207;56.328;43.994;2022-11-15T04:00:38;0.55;;;0.55;;
74677;SDS011;63207;56.328;43.994;2022-11-15T04:03:23;0.50;;;0.50;;
74677;SDS011;63207;56.328;43.994;2022-11-15T04:06:07;0.82;;;0.65;;
74677;SDS011;63207;56.328;43.994;2022-11-15T04:08:51;0.65;;;0.60;;
74677;SDS011;63207;56.328;43.994;2022-11-15T04:11:35;0.80;;;0.60;;
74677;SDS011;63207;56.328;43.994;2022-11-15T04:14:20;1.40;;;0.52;;
74677;SDS011;63207;56.328;43.994;2022-11-15T04:17:04;0.90;;;0.60;;
74677;SDS011;63207;56.328;43.994;2022-11-15T04:19:48;0.65;;;0.57;;
74677;SDS011;63207;56.328;43.994;2022-11-15T04:22:52;0.55;;;0.52;;
74677;SDS011;63207;56.328;43.994;2022-11-15T04:25:56;0.50;;;0.50;;
74677;SDS011;63207;56.328;43.994;2022-11-15T04:28:44;0.75;;;0.60;;
74677;SDS011;63207;56.328;43.994;2022-11-15T04:31:47;0.50;;;0.50;;
74677;SDS011;63207;56.328;43.994;2022-11-15T04:34:32;0.50;;;0.50;;
74677;SDS011;63207;56.328;43.994;2022-11-15T04:40:01;0.60;;;0.60;;
74677;SDS011;63207;56.328;43.994;2022-11-15T04:42:45;0.82;;;0.60;;
74677;SDS011;63207;56.328;43.994;2022-11-15T04:45:30;0.60;;;0.60;;
74677;SDS011;63207;56.328;43.994;2022-11-15T04:48:14;0.50;;;0.50;;
74677;SDS011;63207;56.328;43.994;2022-11-15T04:50:58;0.55;;;0.50;;
74677;SDS011;63207;56.328;43.994;2022-11-15T04:53:43;0.93;;;0.50;;
74677;SDS011;63207;56.328;43.994;2022-11-15T04:56:27;0.40;;;0.40;;
74677;SDS011;63207;56.328;43.994;2022-11-15T04:59:11;0.50;;;0.50;;
74677;SDS011;63207;56.328;43.994;2022-11-15T05:01:56;0.50;;;0.50;;
74677;SDS011;63207;56.328;43.994;2022-11-15T05:04:40;0.60;;;0.50;;
74677;SDS011;63207;56.328;43.994;2022-11-15T05:07:24;0.50;;;0.50;;
74677;SDS011;63207;56.328;43.994;2022-11-15T05:10:09;0.50;;;0.50;;
74677;SDS011;63207;56.328;43.994;2022-11-15T05:12:53;0.50;;;0.50;;
74677;SDS011;63207;56.328;43.994;2022-11-15T05:15:38;0.63;;;0.52;;
74677;SDS011;63207;56.328;43.994;2022-11-15T05:18:22;0.55;;;0.50;;
74677;SDS011;63207;56.328;43.994;2022-11-15T05:21:07;0.90;;;0.60;;
74677;SDS011;63207;56.328;43.994;2022-11-15T05:23:54;0.65;;;0.50;;
74677;SDS011;63207;56.328;43.994;2022-11-15T05:26:39;0.50;;;0.50;;
74677;SDS011;63207;56.328;43.994;2022-11-15T05:29:24;1.05;;;0.60;;
74677;SDS011;63207;56.328;43.994;2022-11-15T05:32:09;0.93;;;0.63;;
74677;SDS011;63207;56.328;43.994;2022-11-15T05:34:55;0.70;;;0.63;;
74677;SDS011;63207;56.328;43.994;2022-11-15T05:37:40;0.50;;;0.50;;
74677;SDS011;63207;56.328;43.994;2022-11-15T05:40:24;0.50;;;0.50;;
74677;SDS011;63207;56.328;43.994;2022-11-15T05:43:09;0.50;;;0.50;;
74677;SDS011;63207;56.328;43.994;2022-11-15T05:45:54;0.50;;;0.50;;
74677;SDS011;63207;56.328;43.994;2022-11-15T05:48:41;0.90;;;0.68;;
74677;SDS011;63207;56.328;43.994;2022-11-15T05:51:28;0.50;;;0.50;;
74677;SDS011;63207;56.328;43.994;2022-11-15T05:54:13;1.05;;;0.60;;
74677;SDS011;63207;56.328;43.994;2022-11-15T05:56:58;0.68;;;0.50;;
74677;SDS011;63207;56.328;43.994;2022-11-15T05:59:44;0.77;;;0.60;;
74677;SDS011;63207;56.328;43.994;2022-11-15T06:02:30;0.60;;;0.55;;
74677;SDS011;63207;56.328;43.994;2022-11-15T06:05:14;0.60;;;0.60;;
74677;SDS011;63207;56.328;43.994;2022-11-15T06:07:59;0.60;;;0.60;;
74677;SDS011;63207;56.328;43.994;2022-11-15T06:10:43;0.50;;;0.50;;
74677;SDS011;63207;56.328;43.994;2022-11-15T06:13:28;1.02;;;0.70;;
74677;SDS011;63207;56.328;43.994;2022-11-15T06:16:12;0.88;;;0.50;;
74677;SDS011;63207;56.328;43.994;2022-11-15T06:18:57;0.88;;;0.60;;
74677;SDS011;63207;56.328;43.994;2022-11-15T06:21:41;0.50;;;0.50;;
74677;SDS011;63207;56.328;43.994;2022-11-15T06:24:25;0.68;;;0.68;;
74677;SDS011;63207;56.328;43.994;2022-11-15T06:27:10;0.50;;;0.50;;
74677;SDS011;63207;56.328;43.994;2022-11-15T06:29:55;0.63;;;0.63;;
74677;SDS011;63207;56.328;43.994;2022-11-15T06:32:39;0.57;;;0.50;;
74677;SDS011;63207;56.328;43.994;2022-11-15T06:35:23;0.63;;;0.55;;
74677;SDS011;63207;56.328;43.994;2022-11-15T06:38:08;0.60;;;0.60;;
74677;SDS011;63207;56.328;43.994;2022-11-15T06:40:53;0.60;;;0.60;;
74677;SDS011;63207;56.328;43.994;2022-11-15T06:43:38;1.05;;;0.55;;
74677;SDS011;63207;56.328;43.994;2022-11-15T06:49:07;0.60;;;0.55;;
74677;SDS011;63207;56.328;43.994;2022-11-15T06:51:51;0.77;;;0.60;;
74677;SDS011;63207;56.328;43.994;2022-11-15T06:54:35;1.05;;;0.60;;
74677;SDS011;63207;56.328;43.994;2022-11-15T06:57:20;0.63;;;0.60;;
74677;SDS011;63207;56.328;43.994;2022-11-15T07:00:04;0.60;;;0.60;;
74677;SDS011;63207;56.328;43.994;2022-11-15T07:02:49;0.50;;;0.50;;
74677;SDS011;63207;56.328;43.994;2022-11-15T07:05:33;0.60;;;0.60;;
74677;SDS011;63207;56.328;43.994;2022-11-15T07:11:04;0.57;;;0.57;;
74677;SDS011;63207;56.328;43.994;2022-11-15T07:13:50;0.50;;;0.50;;
74677;SDS011;63207;56.328;43.994;2022-11-15T07:16:34;0.50;;;0.50;;
74677;SDS011;63207;56.328;43.994;2022-11-15T07:19:20;0.55;;;0.55;;
74677;SDS011;63207;56.328;43.994;2022-11-15T07:22:04;0.55;;;0.50;;
74677;SDS011;63207;56.328;43.994;2022-11-15T07:24:48;1.02;;;0.70;;
74677;SDS011;63207;56.328;43.994;2022-11-15T07:27:32;0.52;;;0.52;;
74677;SDS011;63207;56.328;43.994;2022-11-15T07:30:16;0.50;;;0.50;;
74677;SDS011;63207;56.328;43.994;2022-11-15T07:33:01;1.02;;;0.60;;
74677;SDS011;63207;56.328;43.994;2022-11-15T07:35:45;0.70;;;0.50;;
74677;SDS011;63207;56.328;43.994;2022-11-15T07:38:33;0.57;;;0.57;;
74677;SDS011;63207;56.328;43.994;2022-11-15T07:41:18;0.80;;;0.68;;
74677;SDS011;63207;56.328;43.994;2022-11-15T07:44:02;0.65;;;0.57;;
74677;SDS011;63207;56.328;43.994;2022-11-15T07:46:47;0.77;;;0.60;;
74677;SDS011;63207;56.328;43.994;2022-11-15T07:49:31;0.60;;;0.60;;
74677;SDS011;63207;56.328;43.994;2022-11-15T07:52:15;0.73;;;0.57;;
74677;SDS011;63207;56.328;43.994;2022-11-15T07:55:00;0.65;;;0.55;;
74677;SDS011;63207;56.328;43.994;2022-11-15T07:57:44;0.43;;;0.43;;
74677;SDS011;63207;56.328;43.994;2022-11-15T08:00:28;0.60;;;0.60;;
74677;SDS011;63207;56.328;43.994;2022-11-15T08:03:14;0.73;;;0.60;;
74677;SDS011;63207;56.328;43.994;2022-11-15T08:06:00;0.50;;;0.50;;
74677;SDS011;63207;56.328;43.994;2022-11-15T08:08:46;1.02;;;0.50;;
74677;SDS011;63207;56.328;43.994;2022-11-15T08:11:31;1.55;;;0.70;;
74677;SDS011;63207;56.328;43.994;2022-11-15T08:14:15;0.90;;;0.70;;
74677;SDS011;63207;56.328;43.994;2022-11-15T08:16:59;0.60;;;0.60;;
74677;SDS011;63207;56.328;43.994;2022-11-15T08:19:43;0.52;;;0.52;;
74677;SDS011;63207;56.328;43.994;2022-11-15T08:22:29;0.63;;;0.50;;
74677;SDS011;63207;56.328;43.994;2022-11-15T08:27:59;0.60;;;0.60;;
74677;SDS011;63207;56.328;43.994;2022-11-15T08:30:45;0.70;;;0.60;;
74677;SDS011;63207;56.328;43.994;2022-11-15T08:33:30;0.52;;;0.52;;
74677;SDS011;63207;56.328;43.994;2022-11-15T08:36:15;0.68;;;0.60;;
74677;SDS011;63207;56.328;43.994;2022-11-15T08:39:01;0.50;;;0.50;;
74677;SDS011;63207;56.328;43.994;2022-11-15T08:41:45;0.55;;;0.55;;
74677;SDS011;63207;56.328;43.994;2022-11-15T08:44:29;0.50;;;0.50;;
74677;SDS011;63207;56.328;43.994;2022-11-15T08:47:14;0.70;;;0.70;;
74677;SDS011;63207;56.328;43.994;2022-11-15T08:49:58;0.60;;;0.60;;
74677;SDS011;63207;56.328;43.994;2022-11-15T08:52:42;0.50;;;0.50;;
74677;SDS011;63207;56.328;43.994;2022-11-15T08:55:27;0.60;;;0.60;;
74677;SDS011;63207;56.328;43.994;2022-11-15T08:58:11;0.60;;;0.60;;
74677;SDS011;63207;56.328;43.994;2022-11-15T09:00:55;0.70;;;0.65;;
74677;SDS011;63207;56.328;43.994;2022-11-15T09:03:40;0.60;;;0.60;;
74677;SDS011;63207;56.328;43.994;2022-11-15T09:06:24;0.60;;;0.60;;
74677;SDS011;63207;56.328;43.994;2022-11-15T09:09:10;0.50;;;0.50;;
74677;SDS011;63207;56.328;43.994;2022-11-15T09:11:55;0.85;;;0.63;;
74677;SDS011;63207;56.328;43.994;2022-11-15T09:14:39;0.70;;;0.65;;
74677;SDS011;63207;56.328;43.994;2022-11-15T09:17:23;0.60;;;0.60;;
74677;SDS011;63207;56.328;43.994;2022-11-15T09:20:08;0.60;;;0.60;;
74677;SDS011;63207;56.328;43.994;2022-11-15T09:22:53;0.70;;;0.60;;
74677;SDS011;63207;56.328;43.994;2022-11-15T09:25:37;0.50;;;0.50;;
74677;SDS011;63207;56.328;43.994;2022-11-15T09:28:22;0.70;;;0.60;;
74677;SDS011;63207;56.328;43.994;2022-11-15T09:31:06;0.60;;;0.60;;
74677;SDS011;63207;56.328;43.994;2022-11-15T09:36:35;0.60;;;0.60;;
74677;SDS011;63207;56.328;43.994;2022-11-15T09:39:19;0.60;;;0.60;;
74677;SDS011;63207;56.328;43.994;2022-11-15T09:48:00;0.60;;;0.60;;
74677;SDS011;63207;56.328;43.994;2022-11-15T09:51:25;0.57;;;0.50;;
74677;SDS011;63207;56.328;43.994;2022-11-15T09:56:21;0.77;;;0.60;;
74677;SDS011;63207;56.328;43.994;2022-11-15T10:04:04;0.95;;;0.68;;
74677;SDS011;63207;56.328;43.994;2022-11-15T10:06:30;0.88;;;0.60;;
74677;SDS011;63207;56.328;43.994;2022-11-15T10:09:05;1.00;;;0.80;;
74677;SDS011;63207;56.328;43.994;2022-11-15T10:11:38;0.60;;;0.60;;
74677;SDS011;63207;56.328;43.994;2022-11-15T10:14:15;0.50;;;0.50;;
74677;SDS011;63207;56.328;43.994;2022-11-15T10:22:27;0.68;;;0.60;;
74677;SDS011;63207;56.328;43.994;2022-11-15T10:25:00;0.85;;;0.55;;
74677;SDS011;63207;56.328;43.994;2022-11-15T10:27:39;0.60;;;0.60;;
74677;SDS011;63207;56.328;43.994;2022-11-15T10:30:14;0.98;;;0.52;;
74677;SDS011;63207;56.328;43.994;2022-11-15T10:32:42;1.00;;;0.60;;
74677;SDS011;63207;56.328;43.994;2022-11-15T10:35:28;0.68;;;0.60;;
74677;SDS011;63207;56.328;43.994;2022-11-15T10:38:08;0.60;;;0.60;;
74677;SDS011;63207;56.328;43.994;2022-11-15T10:40:36;0.70;;;0.60;;
74677;SDS011;63207;56.328;43.994;2022-11-15T10:43:13;0.50;;;0.50;;
74677;SDS011;63207;56.328;43.994;2022-11-15T10:45:59;0.60;;;0.60;;
74677;SDS011;63207;56.328;43.994;2022-11-15T10:48:47;0.57;;;0.50;;
74677;SDS011;63207;56.328;43.994;2022-11-15T10:51:20;0.60;;;0.60;;
74677;SDS011;63207;56.328;43.994;2022-11-15T10:53:57;0.60;;;0.60;;
74677;SDS011;63207;56.328;43.994;2022-11-15T10:56:26;0.85;;;0.70;;
74677;SDS011;63207;56.328;43.994;2022-11-15T10:58:56;1.13;;;0.70;;
74677;SDS011;63207;56.328;43.994;2022-11-15T11:01:24;0.65;;;0.65;;
74677;SDS011;63207;56.328;43.994;2022-11-15T11:03:59;0.70;;;0.63;;
74677;SDS011;63207;56.328;43.994;2022-11-15T11:06:30;0.70;;;0.68;;
74677;SDS011;63207;56.328;43.994;2022-11-15T11:09:03;0.77;;;0.60;;
74677;SDS011;63207;56.328;43.994;2022-11-15T11:11:43;0.60;;;0.60;;
74677;SDS011;63207;56.328;43.994;2022-11-15T11:14:23;0.88;;;0.82;;
74677;SDS011;63207;56.328;43.994;2022-11-15T11:16:55;0.60;;;0.60;;
74677;SDS011;63207;56.328;43.994;2022-11-15T11:22:21;0.63;;;0.60;;
74677;SDS011;63207;56.328;43.994;2022-11-15T11:33:21;0.50;;;0.50;;
74677;SDS011;63207;56.328;43.994;2022-11-15T11:38:49;0.60;;;0.60;;
74677;SDS011;63207;56.328;43.994;2022-11-15T11:41:31;0.73;;;0.57;;
74677;SDS011;63207;56.328;43.994;2022-11-15T11:52:02;0.50;;;0.50;;
74677;SDS011;63207;56.328;43.994;2022-11-15T11:57:16;0.90;;;0.70;;
74677;SDS011;63207;56.328;43.994;2022-11-15T11:59:55;0.63;;;0.60;;
74677;SDS011;63207;56.328;43.994;2022-11-15T12:02:39;0.50;;;0.50;;
74677;SDS011;63207;56.328;43.994;2022-11-15T12:05:29;0.68;;;0.60;;
74677;SDS011;63207;56.328;43.994;2022-11-15T12:11:28;1.42;;;0.70;;
74677;SDS011;63207;56.328;43.994;2022-11-15T12:14:03;0.70;;;0.60;;
74677;SDS011;63207;56.328;43.994;2022-11-15T12:16:42;0.80;;;0.70;;
74677;SDS011;63207;56.328;43.994;2022-11-15T12:19:08;1.55;;;0.70;;
74677;SDS011;63207;56.328;43.994;2022-11-15T12:21:47;1.85;;;0.77;;
74677;SDS011;63207;56.328;43.994;2022-11-15T12:24:27;1.10;;;0.80;;
74677;SDS011;63207;56.328;43.994;2022-11-15T12:27:13;1.30;;;0.77;;
74677;SDS011;63207;56.328;43.994;2022-11-15T12:29:45;1.15;;;0.77;;
74677;SDS011;63207;56.328;43.994;2022-11-15T12:35:03;1.00;;;0.70;;
74677;SDS011;63207;56.328;43.994;2022-11-15T12:46:01;1.15;;;0.80;;
74677;SDS011;63207;56.328;43.994;2022-11-15T12:51:01;1.20;;;0.80;;
74677;SDS011;63207;56.328;43.994;2022-11-15T12:53:28;2.20;;;0.82;;
74677;SDS011;63207;56.328;43.994;2022-11-15T12:58:47;2.50;;;1.08;;
74677;SDS011;63207;56.328;43.994;2022-11-15T13:06:46;2.67;;;0.98;;
74677;SDS011;63207;56.328;43.994;2022-11-15T13:14:51;2.38;;;1.00;;
74677;SDS011;63207;56.328;43.994;2022-11-15T13:17:28;1.88;;;1.10;;
74677;SDS011;63207;56.328;43.994;2022-11-15T13:23:00;3.25;;;1.10;;
74677;SDS011;63207;56.328;43.994;2022-11-15T13:31:46;2.08;;;1.05;;
74677;SDS011;63207;56.328;43.994;2022-11-15T13:33:47;2.10;;;1.10;;
74677;SDS011;63207;56.328;43.994;2022-11-15T13:38:57;2.28;;;1.10;;
74677;SDS011;63207;56.328;43.994;2022-11-15T13:41:31;1.73;;;0.85;;
74677;SDS011;63207;56.328;43.994;2022-11-15T13:43:58;2.30;;;1.10;;
74677;SDS011;63207;56.328;43.994;2022-11-15T13:46:33;2.97;;;1.00;;
74677;SDS011;63207;56.328;43.994;2022-11-15T13:49:03;2.08;;;1.02;;
74677;SDS011;63207;56.328;43.994;2022-11-15T13:54:36;1.60;;;0.90;;
74677;SDS011;63207;56.328;43.994;2022-11-15T13:57:29;2.50;;;1.00;;
74677;SDS011;63207;56.328;43.994;2022-11-15T14:00:05;1.95;;;0.98;;
74677;SDS011;63207;56.328;43.994;2022-11-15T14:02:49;3.45;;;1.20;;
74677;SDS011;63207;56.328;43.994;2022-11-15T14:11:07;1.70;;;1.05;;
74677;SDS011;63207;56.328;43.994;2022-11-15T14:16:41;3.88;;;1.58;;
74677;SDS011;63207;56.328;43.994;2022-11-15T14:27:38;4.30;;;1.60;;
74677;SDS011;63207;56.328;43.994;2022-11-15T14:30:06;3.15;;;1.42;;
74677;SDS011;63207;56.328;43.994;2022-11-15T14:32:43;3.80;;;1.50;;
74677;SDS011;63207;56.328;43.994;2022-11-15T14:35:12;4.15;;;1.80;;
74677;SDS011;63207;56.328;43.994;2022-11-15T14:37:47;5.22;;;2.05;;
74677;SDS011;63207;56.328;43.994;2022-11-15T14:40:18;4.72;;;1.90;;
74677;SDS011;63207;56.328;43.994;2022-11-15T14:42:46;3.38;;;1.40;;
74677;SDS011;63207;56.328;43.994;2022-11-15T14:45:15;4.53;;;1.63;;
74677;SDS011;63207;56.328;43.994;2022-11-15T14:47:43;2.50;;;1.52;;
74677;SDS011;63207;56.328;43.994;2022-11-15T14:50:13;3.75;;;1.70;;
74677;SDS011;63207;56.328;43.994;2022-11-15T14:52:41;4.00;;;1.90;;
74677;SDS011;63207;56.328;43.994;2022-11-15T14:55:22;2.95;;;1.40;;
74677;SDS011;63207;56.328;43.994;2022-11-15T14:57:57;3.97;;;1.70;;
74677;SDS011;63207;56.328;43.994;2022-11-15T15:00:23;4.05;;;1.58;;
74677;SDS011;63207;56.328;43.994;2022-11-15T15:02:50;2.75;;;1.50;;
74677;SDS011;63207;56.328;43.994;2022-11-15T15:05:20;3.65;;;1.33;;
74677;SDS011;63207;56.328;43.994;2022-11-15T15:07:50;4.53;;;1.50;;
74677;SDS011;63207;56.328;43.994;2022-11-15T15:10:19;2.60;;;1.30;;
74677;SDS011;63207;56.328;43.994;2022-11-15T15:12:45;4.95;;;1.52;;
74677;SDS011;63207;56.328;43.994;2022-11-15T15:15:13;4.25;;;1.48;;
74677;SDS011;63207;56.328;43.994;2022-11-15T15:17:41;2.53;;;1.30;;
74677;SDS011;63207;56.328;43.994;2022-11-15T15:20:08;3.00;;;1.50;;
74677;SDS011;63207;56.328;43.994;2022-11-15T15:22:35;4.18;;;1.55;;
74677;SDS011;63207;56.328;43.994;2022-11-15T15:25:01;5.15;;;1.40;;
74677;SDS011;63207;56.328;43.994;2022-11-15T15:27:28;2.67;;;1.55;;
74677;SDS011;63207;56.328;43.994;2022-11-15T15:29:54;2.88;;;1.40;;
74677;SDS011;63207;56.328;43.994;2022-11-15T15:32:20;3.42;;;1.50;;
74677;SDS011;63207;56.328;43.994;2022-11-15T15:34:46;3.78;;;1.42;;
74677;SDS011;63207;56.328;43.994;2022-11-15T15:39:51;3.05;;;1.40;;
74677;SDS011;63207;56.328;43.994;2022-11-15T15:42:18;3.28;;;1.50;;
74677;SDS011;63207;56.328;43.994;2022-11-15T15:44:44;3.60;;;1.60;;
74677;SDS011;63207;56.328;43.994;2022-11-15T15:47:11;3.83;;;1.50;;
74677;SDS011;63207;56.328;43.994;2022-11-15T15:49:39;3.85;;;1.80;;
74677;SDS011;63207;56.328;43.994;2022-11-15T15:52:04;4.38;;;1.52;;
74677;SDS011;63207;56.328;43.994;2022-11-15T15:54:30;2.13;;;1.27;;
74677;SDS011;63207;56.328;43.994;2022-11-15T15:56:58;2.20;;;1.30;;
74677;SDS011;63207;56.328;43.994;2022-11-15T15:59:24;3.58;;;1.60;;
74677;SDS011;63207;56.328;43.994;2022-11-15T16:01:50;2.83;;;1.35;;
74677;SDS011;63207;56.328;43.994;2022-11-15T16:04:15;3.25;;;1.33;;
74677;SDS011;63207;56.328;43.994;2022-11-15T16:06:41;3.70;;;1.52;;
74677;SDS011;63207;56.328;43.994;2022-11-15T16:09:14;2.65;;;1.50;;
74677;SDS011;63207;56.328;43.994;2022-11-15T16:11:42;2.85;;;1.50;;
74677;SDS011;63207;56.328;43.994;2022-11-15T16:14:09;3.55;;;1.45;;
74677;SDS011;63207;56.328;43.994;2022-11-15T16:16:37;2.95;;;1.33;;
74677;SDS011;63207;56.328;43.994;2022-11-15T16:19:03;2.78;;;1.20;;
74677;SDS011;63207;56.328;43.994;2022-11-15T16:21:29;2.30;;;1.40;;
74677;SDS011;63207;56.328;43.994;2022-11-15T16:23:55;3.00;;;1.30;;
74677;SDS011;63207;56.328;43.994;2022-11-15T16:26:25;3.15;;;1.50;;
74677;SDS011;63207;56.328;43.994;2022-11-15T16:28:53;3.35;;;1.52;;
74677;SDS011;63207;56.328;43.994;2022-11-15T16:31:19;2.90;;;1.20;;
74677;SDS011;63207;56.328;43.994;2022-11-15T16:33:48;2.53;;;1.30;;
74677;SDS011;63207;56.328;43.994;2022-11-15T16:36:19;2.95;;;1.40;;
74677;SDS011;63207;56.328;43.994;2022-11-15T16:38:49;3.92;;;1.50;;
74677;SDS011;63207;56.328;43.994;2022-11-15T16:41:15;2.97;;;1.40;;
74677;SDS011;63207;56.328;43.994;2022-11-15T16:43:46;2.00;;;1.13;;
74677;SDS011;63207;56.328;43.994;2022-11-15T16:46:31;3.17;;;1.48;;
74677;SDS011;63207;56.328;43.994;2022-11-15T16:48:57;3.88;;;1.45;;
74677;SDS011;63207;56.328;43.994;2022-11-15T16:51:23;4.55;;;1.20;;
74677;SDS011;63207;56.328;43.994;2022-11-15T16:53:50;2.72;;;1.42;;
74677;SDS011;63207;56.328;43.994;2022-11-15T16:58:55;3.03;;;1.50;;
74677;SDS011;63207;56.328;43.994;2022-11-15T17:01:32;4.50;;;1.60;;
74677;SDS011;63207;56.328;43.994;2022-11-15T17:04:11;4.05;;;1.70;;
74677;SDS011;63207;56.328;43.994;2022-11-15T17:06:38;3.97;;;1.70;;
74677;SDS011;63207;56.328;43.994;2022-11-15T17:09:05;4.60;;;1.77;;
74677;SDS011;63207;56.328;43.994;2022-11-15T17:11:31;3.15;;;1.50;;
74677;SDS011;63207;56.328;43.994;2022-11-15T17:13:58;3.15;;;1.60;;
74677;SDS011;63207;56.328;43.994;2022-11-15T17:16:24;3.15;;;1.83;;
74677;SDS011;63207;56.328;43.994;2022-11-15T17:18:51;3.28;;;1.77;;
74677;SDS011;63207;56.328;43.994;2022-11-15T17:21:20;3.00;;;1.65;;
74677;SDS011;63207;56.328;43.994;2022-11-15T17:23:47;4.93;;;2.05;;
74677;SDS011;63207;56.328;43.994;2022-11-15T17:26:13;3.92;;;1.50;;
74677;SDS011;63207;56.328;43.994;2022-11-15T17:28:40;4.72;;;1.73;;
74677;SDS011;63207;56.328;43.994;2022-11-15T17:31:07;4.60;;;1.80;;
74677;SDS011;63207;56.328;43.994;2022-11-15T17:33:36;4.50;;;1.95;;
74677;SDS011;63207;56.328;43.994;2022-11-15T17:36:03;3.33;;;1.42;;
74677;SDS011;63207;56.328;43.994;2022-11-15T17:38:31;3.53;;;1.90;;
74677;SDS011;63207;56.328;43.994;2022-11-15T17:41:04;4.35;;;1.90;;
74677;SDS011;63207;56.328;43.994;2022-11-15T17:43:37;4.75;;;1.80;;
74677;SDS011;63207;56.328;43.994;2022-11-15T17:46:04;3.17;;;1.65;;
74677;SDS011;63207;56.328;43.994;2022-11-15T17:48:31;2.63;;;1.60;;
74677;SDS011;63207;56.328;43.994;2022-11-15T17:50:58;3.85;;;1.95;;
74677;SDS011;63207;56.328;43.994;2022-11-15T17:53:32;2.40;;;1.80;;
74677;SDS011;63207;56.328;43.994;2022-11-15T17:56:00;4.20;;;2.00;;
74677;SDS011;63207;56.328;43.994;2022-11-15T17:58:30;2.72;;;1.73;;
74677;SDS011;63207;56.328;43.994;2022-11-15T18:03:46;2.75;;;1.70;;
74677;SDS011;63207;56.328;43.994;2022-11-15T18:06:12;5.28;;;1.92;;
74677;SDS011;63207;56.328;43.994;2022-11-15T18:08:39;3.20;;;1.52;;
74677;SDS011;63207;56.328;43.994;2022-11-15T18:11:08;2.95;;;1.80;;
74677;SDS011;63207;56.328;43.994;2022-11-15T18:13:39;2.95;;;1.60;;
74677;SDS011;63207;56.328;43.994;2022-11-15T18:16:09;2.90;;;1.50;;
74677;SDS011;63207;56.328;43.994;2022-11-15T18:18:36;3.97;;;1.98;;
74677;SDS011;63207;56.328;43.994;2022-11-15T18:21:03;2.30;;;1.67;;
74677;SDS011;63207;56.328;43.994;2022-11-15T18:23:51;2.90;;;1.80;;
74677;SDS011;63207;56.328;43.994;2022-11-15T18:26:19;5.05;;;1.95;;